SIPK1: Pottawatomie Creek nr Scipio 1SE

                                SHEF ID:       SIPK1     POTTAWATOMIE C NR SCIPIO, KS
STATION TYPE:

PRECIP STAGE RIV-FLOW BAT-LOAD
in ft cfs volt
Ccp-Rev Ccp-Rev Ccp-Rev Ccp-Rev
(America/Chicago)
06/30 00:00 ---- 4.63 276 12.73
06/30 01:00 ---- 4.60 268 12.73
06/30 02:00 ---- 4.58 262 12.73
06/30 03:00 ---- 4.56 256 12.73
06/30 04:00 ---- 4.54 251 12.65
06/30 05:00 ---- 4.52 245 12.65
06/30 06:00 ---- 4.50 240 12.65
06/30 07:00 ---- 4.48 234 12.65
06/30 08:00 ---- 4.47 232 12.65
06/30 09:00 ---- 4.45 227 12.65
06/30 10:00 ---- 4.44 225 13.21
06/30 11:00 ---- 4.42 220 13.60
06/30 12:00 ---- 4.41 217 13.60
06/30 13:00 ---- 4.39 212 13.68
06/30 14:00 ---- 4.37 208 13.60
06/30 15:00 ---- 4.36 205 13.60
06/30 16:00 ---- 4.34 201 13.53
06/30 17:00 ---- 4.32 197 13.53
06/30 18:00 ---- 4.31 195 13.44
06/30 19:00 ---- 4.29 191 13.29
06/30 20:00 ---- 4.28 189 12.89
06/30 21:00 ---- 4.26 185 12.81
06/30 22:00 ---- 4.25 183 12.81
06/30 23:00 ---- 4.23 179 12.81
Data processed at Wed 01Jul2026 04:48 GMT

NOTICE: If you are parsing this page

Please convert to using our Data API. Starting early 2026 we will be migrating to: https://water.usace.army.mil with modern pages rendered in JavaScript. When this migration completes you will no longer be able to scrape this page! CWMSDataAPI (CDA)

Timeseries IDs (TSIDs)

TSIDs used from left to right in the data table
SCIP.Precip-Inc.Total.1Hour.1Hour.Ccp-Rev
SCIP.Stage.Inst.1Hour.0.Ccp-Rev
SCIP.Flow.Inst.1Hour.0.Ccp-Rev
SCIP.Volt-Battery Load.Inst.1Hour.0.Ccp-Rev

                            

All information presented herein is the property of the government of the United States of America and may be revised or deleted at any time without prior notice. Dissemination of this information without the expressed written consent of the Public Affairs Office, Tulsa District U.S. Army Corps of Engineers is strictly prohibited. These data are gathered electronically and, as presented, have NOT undergone any form of quality control. These data are NOT guaranteed to be valid or correct.